createdAt,value
2019-04-16T00:00:42.455Z,6.87
2019-04-16T00:01:57.699Z,6.50
2019-04-16T00:03:02.295Z,6.13
2019-04-16T00:04:25.796Z,6.60
2019-04-16T00:05:37.732Z,5.78
2019-04-16T00:07:00.354Z,5.92
2019-04-16T00:08:27.137Z,6.13
2019-04-16T00:09:35.989Z,6.27
2019-04-16T00:10:42.653Z,5.85
2019-04-16T00:11:57.733Z,5.97
2019-04-16T00:13:22.020Z,5.80
2019-04-16T00:14:28.155Z,6.72
2019-04-16T00:15:33.099Z,5.77
2019-04-16T00:16:37.643Z,7.50
2019-04-16T00:17:44.348Z,6.53
2019-04-16T00:18:57.178Z,7.08
2019-04-16T00:19:54.830Z,7.03
2019-04-16T00:21:19.318Z,6.58
2019-04-16T00:22:25.559Z,6.12
2019-04-16T00:23:48.046Z,6.37
2019-04-16T00:24:52.646Z,5.83
2019-04-16T00:25:57.295Z,7.03
2019-04-16T00:27:01.861Z,6.03
2019-04-16T00:28:06.377Z,7.10
2019-04-16T00:29:10.907Z,6.65
2019-04-16T00:30:16.593Z,6.62
2019-04-16T00:31:21.082Z,6.37
2019-04-16T00:32:27.246Z,5.47
2019-04-16T00:33:31.711Z,5.90
2019-04-16T00:34:36.195Z,7.80
2019-04-16T00:35:40.680Z,6.50
2019-04-16T00:36:48.465Z,7.17
2019-04-16T00:37:52.318Z,6.00
2019-04-16T00:38:56.980Z,6.40
2019-04-16T00:40:01.469Z,6.50
2019-04-16T00:41:05.973Z,6.10
2019-04-16T00:42:10.483Z,6.87
2019-04-16T00:43:14.938Z,6.40
2019-04-16T00:44:19.539Z,6.05
2019-04-16T00:45:24.097Z,6.20
2019-04-16T00:46:28.575Z,7.40
2019-04-16T00:47:33.190Z,6.50
2019-04-16T00:48:37.681Z,7.65
2019-04-16T00:49:42.295Z,6.35
2019-04-16T00:50:46.840Z,8.15
2019-04-16T00:51:51.457Z,6.93
2019-04-16T00:52:55.972Z,7.10
2019-04-16T00:54:00.446Z,6.50
2019-04-16T00:55:06.611Z,7.60
2019-04-16T00:56:13.381Z,7.00
2019-04-16T00:57:17.997Z,6.23
2019-04-16T00:58:23.424Z,6.50
2019-04-16T00:59:27.994Z,6.37
2019-04-16T01:00:32.544Z,6.25
2019-04-16T01:01:38.520Z,6.23
2019-04-16T01:02:42.975Z,6.90
2019-04-16T01:03:47.503Z,5.90
2019-04-16T01:04:51.983Z,6.70
2019-04-16T01:05:56.507Z,6.17
2019-04-16T01:07:01.688Z,6.35
2019-04-16T01:08:06.489Z,6.97
2019-04-16T01:09:11.054Z,6.28
2019-04-16T01:10:15.510Z,7.05
2019-04-16T01:11:20.062Z,6.78
2019-04-16T01:12:25.379Z,7.70
2019-04-16T01:13:30.135Z,6.72
2019-04-16T01:14:34.792Z,6.17
2019-04-16T01:15:39.318Z,6.67
2019-04-16T01:16:43.811Z,6.23
2019-04-16T01:17:48.302Z,6.50
2019-04-16T01:18:52.792Z,6.97
2019-04-16T01:19:57.346Z,6.70
2019-04-16T01:21:02.404Z,7.57
2019-04-16T01:22:07.004Z,6.60
2019-04-16T01:23:11.532Z,7.43
2019-04-16T01:24:17.547Z,6.77
2019-04-16T01:25:23.291Z,7.85
2019-04-16T01:26:28.719Z,7.83
2019-04-16T01:27:34.907Z,7.22
2019-04-16T01:28:46.981Z,6.70
2019-04-16T01:29:51.480Z,6.07
2019-04-16T01:31:12.867Z,6.43
2019-04-16T01:32:31.187Z,5.97
2019-04-16T01:33:37.560Z,6.00
2019-04-16T01:34:49.153Z,6.37
2019-04-16T01:36:11.396Z,6.20
2019-04-16T01:37:17.563Z,6.25
2019-04-16T01:38:27.659Z,6.42
2019-04-16T01:39:31.485Z,6.57
2019-04-16T01:40:37.959Z,6.27
2019-04-16T01:41:42.512Z,7.40
2019-04-16T01:42:47.849Z,6.60
2019-04-16T01:43:54.332Z,6.25
2019-04-16T01:44:59.909Z,6.83
2019-04-16T01:46:04.680Z,6.95
2019-04-16T01:47:09.227Z,6.33
2019-04-16T01:48:13.681Z,9.97
2019-04-16T01:49:18.239Z,6.90
2019-04-16T01:50:22.715Z,6.40
2019-04-16T01:51:27.212Z,6.27
2019-04-16T01:52:31.766Z,6.87
2019-04-16T01:53:36.306Z,6.77
2019-04-16T01:54:41.058Z,6.80
2019-04-16T01:55:45.635Z,6.58
2019-04-16T01:56:50.108Z,6.13
2019-04-16T01:57:54.681Z,7.12
2019-04-16T01:58:59.439Z,6.67
2019-04-16T02:00:07.812Z,6.63
2019-04-16T02:01:12.642Z,6.87
2019-04-16T02:02:17.318Z,6.80
2019-04-16T02:03:21.885Z,6.55
2019-04-16T02:04:26.364Z,7.30
2019-04-16T02:05:30.854Z,6.42
2019-04-16T02:06:35.402Z,6.65
2019-04-16T02:07:39.862Z,6.97
2019-04-16T02:08:44.489Z,7.33
2019-04-16T02:09:48.959Z,7.50
2019-04-16T02:10:53.453Z,6.90
2019-04-16T02:11:58.179Z,6.57
2019-04-16T02:13:02.748Z,6.80
2019-04-16T02:14:07.241Z,7.13
2019-04-16T02:15:12.065Z,7.60
2019-04-16T02:16:16.806Z,7.17
2019-04-16T02:17:21.414Z,7.25
2019-04-16T02:18:29.443Z,6.30
2019-04-16T02:19:32.916Z,7.13
2019-04-16T02:20:39.253Z,7.03
2019-04-16T02:21:45.150Z,6.42
2019-04-16T02:22:49.627Z,7.20
2019-04-16T02:23:54.157Z,6.37
2019-04-16T02:24:58.650Z,6.75
2019-04-16T02:26:03.132Z,6.70
2019-04-16T02:27:07.774Z,8.05
2019-04-16T02:28:12.632Z,6.22
2019-04-16T02:29:17.078Z,6.90
2019-04-16T02:30:21.553Z,6.70
2019-04-16T02:31:26.122Z,7.10
2019-04-16T02:32:30.621Z,6.50
2019-04-16T02:33:35.092Z,7.00
2019-04-16T02:34:39.670Z,6.30
2019-04-16T02:35:44.259Z,6.40
2019-04-16T02:36:48.752Z,6.45
2019-04-16T02:37:53.293Z,6.30
2019-04-16T02:38:57.960Z,6.43
2019-04-16T02:40:02.557Z,7.17
2019-04-16T02:41:07.770Z,6.73
2019-04-16T02:42:12.308Z,6.97
2019-04-16T02:43:16.777Z,6.83
2019-04-16T02:44:21.267Z,6.15
2019-04-16T02:45:25.796Z,6.50
2019-04-16T02:46:32.301Z,7.15
2019-04-16T02:47:41.876Z,6.12
2019-04-16T02:48:50.285Z,7.05
2019-04-16T02:49:49.363Z,7.07
2019-04-16T02:51:05.413Z,6.23
2019-04-16T02:52:06.325Z,6.73
2019-04-16T02:53:28.983Z,6.67
2019-04-16T02:54:35.107Z,7.42
2019-04-16T02:55:57.475Z,6.78
2019-04-16T02:57:12.118Z,6.97
2019-04-16T02:58:20.781Z,6.10
2019-04-16T02:59:29.676Z,6.33
2019-04-16T03:00:41.998Z,5.90
2019-04-16T03:01:49.374Z,6.28
2019-04-16T03:02:58.864Z,7.08
2019-04-16T03:04:08.022Z,6.22
2019-04-16T03:05:30.067Z,6.73
2019-04-16T03:06:34.548Z,6.63
2019-04-16T03:07:39.074Z,6.53
2019-04-16T03:08:44.003Z,6.53
2019-04-16T03:10:00.546Z,6.55
2019-04-16T03:10:55.997Z,6.07
2019-04-16T03:12:00.762Z,6.65
2019-04-16T03:13:05.264Z,7.95
2019-04-16T03:14:10.349Z,6.50
2019-04-16T03:15:16.939Z,7.22
2019-04-16T03:16:39.457Z,6.33
2019-04-16T03:17:47.034Z,6.93
2019-04-16T03:18:55.695Z,6.57
2019-04-16T03:20:07.895Z,6.53
2019-04-16T03:21:12.461Z,6.22
2019-04-16T03:22:16.925Z,6.92
2019-04-16T03:23:21.555Z,5.72
2019-04-16T03:24:26.319Z,6.40
2019-04-16T03:25:30.876Z,6.60
2019-04-16T03:26:35.418Z,10.60
2019-04-16T03:27:40.062Z,6.95
2019-04-16T03:28:44.557Z,6.65
2019-04-16T03:29:49.215Z,6.30
2019-04-16T03:30:53.696Z,6.30
2019-04-16T03:31:59.627Z,6.73
2019-04-16T03:33:10.291Z,7.60
2019-04-16T03:34:11.270Z,6.30
2019-04-16T03:35:15.945Z,7.78
2019-04-16T03:36:20.411Z,6.37
2019-04-16T03:37:25.140Z,6.08
2019-04-16T03:38:29.940Z,7.10
2019-04-16T03:39:34.410Z,6.83
2019-04-16T03:40:38.896Z,6.40
2019-04-16T03:41:43.490Z,6.78
2019-04-16T03:42:47.959Z,6.42
2019-04-16T03:43:52.477Z,6.12
2019-04-16T03:44:57.000Z,7.22
2019-04-16T03:46:01.561Z,7.58
2019-04-16T03:47:06.026Z,6.42
2019-04-16T03:48:10.551Z,6.70
2019-04-16T03:49:15.116Z,6.83
2019-04-16T03:50:19.595Z,7.43
2019-04-16T03:51:24.114Z,7.00
2019-04-16T03:52:28.593Z,6.60
2019-04-16T03:53:33.074Z,6.07
2019-04-16T03:54:37.650Z,6.57
2019-04-16T03:55:42.269Z,6.78
2019-04-16T03:56:46.800Z,7.33
2019-04-16T03:57:51.447Z,7.25
2019-04-16T03:58:55.941Z,6.80
2019-04-16T04:00:00.873Z,7.60
2019-04-16T04:01:05.675Z,6.67
2019-04-16T04:02:10.265Z,6.87
2019-04-16T04:03:14.812Z,6.53
2019-04-16T04:04:19.291Z,6.67
2019-04-16T04:05:24.091Z,6.45
2019-04-16T04:06:28.561Z,6.90
2019-04-16T04:07:33.041Z,6.58
2019-04-16T04:08:37.511Z,6.67
2019-04-16T04:09:42.186Z,6.78
2019-04-16T04:10:46.679Z,6.63
2019-04-16T04:11:51.378Z,6.93
2019-04-16T04:12:55.844Z,6.47
2019-04-16T04:14:00.298Z,6.78
2019-04-16T04:15:06.142Z,7.15
2019-04-16T04:16:10.671Z,6.60
2019-04-16T04:17:15.825Z,8.27
2019-04-16T04:18:20.300Z,6.57
2019-04-16T04:19:24.772Z,7.37
2019-04-16T04:20:29.358Z,7.13
2019-04-16T04:21:33.858Z,6.25
2019-04-16T04:22:38.323Z,7.40
2019-04-16T04:23:42.816Z,7.12
2019-04-16T04:24:47.339Z,6.78
2019-04-16T04:25:51.841Z,7.92
2019-04-16T04:26:56.398Z,6.70
2019-04-16T04:28:00.870Z,6.60
2019-04-16T04:29:06.341Z,6.55
2019-04-16T04:30:11.967Z,6.50
2019-04-16T04:31:16.449Z,8.33
2019-04-16T04:32:21.014Z,7.70
2019-04-16T04:33:41.592Z,6.33
2019-04-16T04:34:55.908Z,6.00
2019-04-16T04:36:00.453Z,6.27
2019-04-16T04:37:04.944Z,7.78
2019-04-16T04:38:09.446Z,7.28
2019-04-16T04:39:15.664Z,6.47
2019-04-16T04:40:20.190Z,7.10
2019-04-16T04:41:24.675Z,7.08
2019-04-16T04:42:29.180Z,6.47
2019-04-16T04:43:33.862Z,6.67
2019-04-16T04:44:38.403Z,6.80
2019-04-16T04:45:42.877Z,8.17
2019-04-16T04:46:47.392Z,7.07
2019-04-16T04:47:52.374Z,7.17
2019-04-16T04:49:00.025Z,8.00
2019-04-16T04:50:04.444Z,6.80
2019-04-16T04:51:09.144Z,7.70
2019-04-16T04:52:14.865Z,7.93
2019-04-16T04:53:20.132Z,9.90
2019-04-16T04:54:24.812Z,6.47
2019-04-16T04:55:29.283Z,8.03
2019-04-16T04:56:33.755Z,7.37
2019-04-16T04:57:38.349Z,6.92
2019-04-16T04:58:43.105Z,7.28
2019-04-16T04:59:47.684Z,7.72
2019-04-16T05:00:52.454Z,7.70
2019-04-16T05:01:56.929Z,9.10
2019-04-16T05:03:01.408Z,7.07
2019-04-16T05:04:23.669Z,8.97
2019-04-16T05:05:39.023Z,8.40
2019-04-16T05:06:54.410Z,9.13
2019-04-16T05:08:00.031Z,6.95
2019-04-16T05:09:06.213Z,6.90
2019-04-16T05:10:11.171Z,6.87
2019-04-16T05:11:16.969Z,7.60
2019-04-16T05:12:22.337Z,9.30
2019-04-16T05:13:27.036Z,6.60
2019-04-16T05:14:31.652Z,7.20
2019-04-16T05:15:36.352Z,8.20
2019-04-16T05:16:41.144Z,7.77
2019-04-16T05:17:45.643Z,7.00
2019-04-16T05:18:50.212Z,6.53
2019-04-16T05:19:54.665Z,7.70
2019-04-16T05:20:59.225Z,8.00
2019-04-16T05:22:03.706Z,7.63
2019-04-16T05:23:08.176Z,9.47
2019-04-16T05:24:13.049Z,7.60
2019-04-16T05:25:17.822Z,8.40
2019-04-16T05:26:22.343Z,7.72
2019-04-16T05:27:29.367Z,7.42
2019-04-16T05:28:33.259Z,7.67
2019-04-16T05:29:37.734Z,7.75
2019-04-16T05:30:42.269Z,7.67
2019-04-16T05:31:46.753Z,7.77
2019-04-16T05:32:51.263Z,7.23
2019-04-16T05:33:59.451Z,7.47
2019-04-16T05:35:02.166Z,7.17
2019-04-16T05:36:06.685Z,7.03
2019-04-16T05:37:11.194Z,7.75
2019-04-16T05:38:15.684Z,8.13
2019-04-16T05:39:20.241Z,8.70
2019-04-16T05:40:28.029Z,8.80
2019-04-16T05:41:31.252Z,9.08
2019-04-16T05:42:35.733Z,8.10
2019-04-16T05:43:40.209Z,7.67
2019-04-16T05:44:44.702Z,7.90
2019-04-16T05:45:49.266Z,8.53
2019-04-16T05:46:53.933Z,9.38
2019-04-16T05:47:58.542Z,8.20
2019-04-16T05:49:03.036Z,7.83
2019-04-16T05:50:08.178Z,9.87
2019-04-16T05:51:12.945Z,9.17
2019-04-16T05:52:17.418Z,9.13
2019-04-16T05:53:22.180Z,7.40
2019-04-16T05:54:31.049Z,8.53
2019-04-16T05:55:39.724Z,8.10
2019-04-16T05:56:45.847Z,11.43
2019-04-16T05:57:51.978Z,7.43
2019-04-16T05:58:56.455Z,7.77
2019-04-16T06:00:03.329Z,7.08
2019-04-16T06:01:10.463Z,7.47
2019-04-16T06:02:18.449Z,8.03
2019-04-16T06:03:23.252Z,8.65
2019-04-16T06:04:27.750Z,8.43
2019-04-16T06:05:32.220Z,9.17
2019-04-16T06:06:36.696Z,10.07
2019-04-16T06:07:41.168Z,7.73
2019-04-16T06:08:45.682Z,8.17
2019-04-16T06:09:50.190Z,7.67
2019-04-16T06:10:57.358Z,7.40
2019-04-16T06:12:00.836Z,7.60
2019-04-16T06:13:23.228Z,7.47
2019-04-16T06:14:41.366Z,8.35
2019-04-16T06:15:50.196Z,7.37
2019-04-16T06:17:11.649Z,7.53
2019-04-16T06:18:23.728Z,7.17
2019-04-16T06:19:29.914Z,8.55
2019-04-16T06:20:38.751Z,7.08
2019-04-16T06:22:00.974Z,7.83
2019-04-16T06:23:13.220Z,8.20
2019-04-16T06:24:28.151Z,7.33
2019-04-16T06:25:42.165Z,7.22
2019-04-16T06:26:50.895Z,7.70
2019-04-16T06:28:13.532Z,7.65
2019-04-16T06:29:22.387Z,6.83
2019-04-16T06:30:34.566Z,7.57
2019-04-16T06:31:43.558Z,7.87
2019-04-16T06:33:01.972Z,8.45
2019-04-16T06:34:08.423Z,7.40
2019-04-16T06:35:42.540Z,7.20
2019-04-16T06:36:38.916Z,8.87
2019-04-16T06:37:45.795Z,8.00
2019-04-16T06:39:00.923Z,10.87
2019-04-16T06:40:24.398Z,7.50
2019-04-16T06:41:41.563Z,8.30
2019-04-16T06:42:56.289Z,8.13
2019-04-16T06:44:03.968Z,8.55
2019-04-16T06:45:10.942Z,11.40
2019-04-16T06:46:17.139Z,7.85
2019-04-16T06:47:23.266Z,7.80
2019-04-16T06:48:29.361Z,7.70
2019-04-16T06:49:51.193Z,8.03
2019-04-16T06:51:03.980Z,8.20
2019-04-16T06:52:16.587Z,9.70
2019-04-16T06:53:26.162Z,7.95
2019-04-16T06:54:45.614Z,9.93
2019-04-16T06:56:00.860Z,7.93
2019-04-16T06:57:22.014Z,7.60
2019-04-16T06:58:50.337Z,8.48
2019-04-16T06:59:44.528Z,7.87
2019-04-16T07:00:53.150Z,8.08
2019-04-16T07:02:01.895Z,8.27
2019-04-16T07:03:13.561Z,7.97
2019-04-16T07:04:22.871Z,8.57
2019-04-16T07:05:31.874Z,7.60
2019-04-16T07:06:45.740Z,7.58
2019-04-16T07:08:09.858Z,8.70
2019-04-16T07:09:25.765Z,7.80
2019-04-16T07:10:44.347Z,7.80
2019-04-16T07:11:53.637Z,8.70
2019-04-16T07:12:49.290Z,8.40
2019-04-16T07:13:53.856Z,8.40
2019-04-16T07:14:58.438Z,7.80
2019-04-16T07:16:02.921Z,8.78
2019-04-16T07:17:07.397Z,8.40
2019-04-16T07:18:11.882Z,9.00
2019-04-16T07:19:17.351Z,8.63
2019-04-16T07:20:22.235Z,8.25
2019-04-16T07:21:26.761Z,8.43
2019-04-16T07:22:31.246Z,8.90
2019-04-16T07:23:35.709Z,8.73
2019-04-16T07:24:40.211Z,13.47
2019-04-16T07:25:45.706Z,7.93
2019-04-16T07:26:50.513Z,8.95
2019-04-16T07:28:09.311Z,8.37
2019-04-16T07:29:15.580Z,8.55
2019-04-16T07:30:21.988Z,8.28
2019-04-16T07:31:33.537Z,8.88
2019-04-16T07:32:36.052Z,8.30
2019-04-16T07:33:44.611Z,8.53
2019-04-16T07:35:05.777Z,8.90
2019-04-16T07:36:27.774Z,8.50
2019-04-16T07:37:39.892Z,8.23
2019-04-16T07:39:05.051Z,8.17
2019-04-16T07:40:24.555Z,7.83
2019-04-16T07:41:42.740Z,8.90
2019-04-16T07:42:59.488Z,8.28
2019-04-16T07:44:10.751Z,9.43
2019-04-16T07:45:30.263Z,8.48
2019-04-16T07:47:01.023Z,8.18
2019-04-16T07:48:12.876Z,8.27
2019-04-16T07:49:34.278Z,8.35
2019-04-16T07:50:46.118Z,8.63
2019-04-16T07:51:52.210Z,10.63
2019-04-16T07:53:14.518Z,8.33
2019-04-16T07:54:37.094Z,9.33
2019-04-16T07:55:45.950Z,8.57
2019-04-16T07:56:51.596Z,8.30
2019-04-16T07:57:56.067Z,9.28
2019-04-16T07:59:01.692Z,8.70
2019-04-16T08:00:10.761Z,9.23
2019-04-16T08:01:16.504Z,9.13
2019-04-16T08:02:22.246Z,8.90
2019-04-16T08:03:27.648Z,8.23
2019-04-16T08:04:35.422Z,10.37
2019-04-16T08:05:41.208Z,11.20
2019-04-16T08:06:47.218Z,8.70
2019-04-16T08:07:52.936Z,9.23
2019-04-16T08:08:58.225Z,8.40
2019-04-16T08:10:04.296Z,8.83
2019-04-16T08:11:08.854Z,8.30
2019-04-16T08:12:29.266Z,9.08
2019-04-16T08:13:23.324Z,12.00
2019-04-16T08:14:27.809Z,8.20
2019-04-16T08:15:32.343Z,9.25
2019-04-16T08:16:47.124Z,9.60
2019-04-16T08:17:43.009Z,9.20
2019-04-16T08:18:48.858Z,9.28
2019-04-16T08:19:55.556Z,9.50
2019-04-16T08:21:05.962Z,9.57
2019-04-16T08:22:06.845Z,9.17
2019-04-16T08:23:30.954Z,10.58
2019-04-16T08:24:39.590Z,8.45
2019-04-16T08:25:44.075Z,7.65
2019-04-16T08:26:48.566Z,10.25
2019-04-16T08:27:54.034Z,8.67
2019-04-16T08:28:59.350Z,8.90
2019-04-16T08:30:09.486Z,9.33
2019-04-16T08:31:15.598Z,8.60
2019-04-16T08:32:20.074Z,8.57
2019-04-16T08:33:28.199Z,9.00
2019-04-16T08:34:30.839Z,8.80
2019-04-16T08:35:35.368Z,8.78
2019-04-16T08:36:39.839Z,9.07
2019-04-16T08:37:49.381Z,9.43
2019-04-16T08:38:50.550Z,9.03
2019-04-16T08:39:55.024Z,8.95
2019-04-16T08:40:59.548Z,9.50
2019-04-16T08:42:04.275Z,10.20
2019-04-16T08:43:08.756Z,8.65
2019-04-16T08:44:13.228Z,8.75
2019-04-16T08:45:20.487Z,8.27
2019-04-16T08:46:24.072Z,8.20
2019-04-16T08:47:28.570Z,8.50
2019-04-16T08:48:33.092Z,8.53
2019-04-16T08:49:37.695Z,8.58
2019-04-16T08:50:42.374Z,8.83
2019-04-16T08:51:46.967Z,8.88
2019-04-16T08:52:51.462Z,8.80
2019-04-16T08:53:56.041Z,8.93
2019-04-16T08:55:00.538Z,9.03
2019-04-16T08:56:05.095Z,9.13
2019-04-16T08:57:09.596Z,8.90
2019-04-16T08:58:14.055Z,9.35
2019-04-16T08:59:18.918Z,9.58
2019-04-16T09:00:23.479Z,9.95
2019-04-16T09:01:29.589Z,11.25
2019-04-16T09:02:34.152Z,8.78
2019-04-16T09:03:38.607Z,9.60
2019-04-16T09:04:43.095Z,8.98
2019-04-16T09:05:47.617Z,9.43
2019-04-16T09:06:52.081Z,9.17
2019-04-16T09:08:11.891Z,9.67
2019-04-16T09:09:14.435Z,9.60
2019-04-16T09:10:23.517Z,8.70
2019-04-16T09:11:28.376Z,7.87
2019-04-16T09:12:32.323Z,8.68
2019-04-16T09:13:41.101Z,9.70
2019-04-16T09:14:45.467Z,8.55
2019-04-16T09:15:49.944Z,7.85
2019-04-16T09:17:05.192Z,7.87
2019-04-16T09:18:14.317Z,7.73
2019-04-16T09:19:20.445Z,8.17
2019-04-16T09:20:26.564Z,8.10
2019-04-16T09:21:31.086Z,9.37
2019-04-16T09:22:48.304Z,7.35
2019-04-16T09:23:43.481Z,8.03
2019-04-16T09:25:01.557Z,8.83
2019-04-16T09:26:14.825Z,7.80
2019-04-16T09:27:15.500Z,7.47
2019-04-16T09:28:25.717Z,7.13
2019-04-16T09:29:45.667Z,7.80
2019-04-16T09:31:07.757Z,7.33
2019-04-16T09:32:28.836Z,7.97
2019-04-16T09:33:37.708Z,7.40
2019-04-16T09:34:43.841Z,7.10
2019-04-16T09:35:52.694Z,7.63
2019-04-16T09:37:01.489Z,7.60
2019-04-16T09:38:13.669Z,7.17
2019-04-16T09:39:31.818Z,8.87
2019-04-16T09:40:55.879Z,7.27
2019-04-16T09:42:00.401Z,6.73
2019-04-16T09:43:18.583Z,7.87
2019-04-16T09:44:23.361Z,6.50
2019-04-16T09:45:27.944Z,6.63
2019-04-16T09:46:50.284Z,7.93
2019-04-16T09:47:38.666Z,7.07
2019-04-16T09:48:43.136Z,8.67
2019-04-16T09:49:47.655Z,8.10
2019-04-16T09:50:52.112Z,8.00
2019-04-16T09:51:56.602Z,7.40
2019-04-16T09:53:01.962Z,7.00
2019-04-16T09:54:06.727Z,8.53
2019-04-16T09:55:11.328Z,7.00
2019-04-16T09:56:29.694Z,7.23
2019-04-16T09:57:34.844Z,6.57
2019-04-16T09:58:42.530Z,6.77
2019-04-16T09:59:48.381Z,6.95
2019-04-16T10:01:03.560Z,6.70
2019-04-16T10:02:15.724Z,6.57
2019-04-16T10:03:24.739Z,6.50
2019-04-16T10:04:29.603Z,5.67
2019-04-16T10:05:34.117Z,6.10
2019-04-16T10:06:38.636Z,7.20
2019-04-16T10:07:43.096Z,6.30
2019-04-16T10:08:47.585Z,5.40
2019-04-16T10:09:54.526Z,6.20
2019-04-16T10:11:02.685Z,6.63
2019-04-16T10:12:07.272Z,6.57
2019-04-16T10:13:11.160Z,6.53
2019-04-16T10:14:15.761Z,7.37
2019-04-16T10:15:20.315Z,6.70
2019-04-16T10:16:26.576Z,6.60
2019-04-16T10:17:31.084Z,6.20
2019-04-16T10:18:36.040Z,6.73
2019-04-16T10:19:43.321Z,6.30
2019-04-16T10:20:47.072Z,6.37
2019-04-16T10:21:54.210Z,6.37
2019-04-16T10:22:59.706Z,6.13
2019-04-16T10:24:15.040Z,6.57
2019-04-16T10:25:19.657Z,6.40
2019-04-16T10:26:24.257Z,5.87
2019-04-16T10:27:36.909Z,6.43
2019-04-16T10:28:43.252Z,6.17
2019-04-16T10:29:47.778Z,6.70
2019-04-16T10:30:52.351Z,7.30
2019-04-16T10:31:56.907Z,7.00
2019-04-16T10:33:01.387Z,6.30
2019-04-16T10:34:05.886Z,6.00
2019-04-16T10:35:10.694Z,6.40
2019-04-16T10:36:15.174Z,7.10
2019-04-16T10:37:19.673Z,5.60
2019-04-16T10:38:37.613Z,5.17
2019-04-16T10:39:43.858Z,5.10
2019-04-16T10:40:50.309Z,5.10
2019-04-16T10:41:56.735Z,5.03
2019-04-16T10:43:19.444Z,5.20
2019-04-16T10:44:25.557Z,4.53
2019-04-16T10:45:46.739Z,5.27
2019-04-16T10:47:08.949Z,4.90
2019-04-16T10:48:15.059Z,5.20
2019-04-16T10:49:24.054Z,5.70
2019-04-16T10:50:46.386Z,5.07
2019-04-16T10:51:52.566Z,4.87
2019-04-16T10:53:04.759Z,5.43
2019-04-16T10:54:13.846Z,5.47
2019-04-16T10:55:28.782Z,8.47
2019-04-16T10:56:56.742Z,5.50
2019-04-16T10:58:15.619Z,5.83
2019-04-16T10:59:36.954Z,6.00
2019-04-16T11:00:43.120Z,5.00
2019-04-16T11:01:49.237Z,5.50
2019-04-16T11:02:55.488Z,5.23
2019-04-16T11:04:16.631Z,5.27
2019-04-16T11:05:22.739Z,5.00
2019-04-16T11:06:29.140Z,5.63
2019-04-16T11:07:35.232Z,5.53
2019-04-16T11:08:39.727Z,5.30
2019-04-16T11:09:44.278Z,5.43
2019-04-16T11:10:48.838Z,5.60
2019-04-16T11:11:53.366Z,5.07
2019-04-16T11:12:57.870Z,5.43
2019-04-16T11:14:02.363Z,5.47
2019-04-16T11:15:07.505Z,5.50
2019-04-16T11:16:13.519Z,5.90
2019-04-16T11:17:19.359Z,4.80
2019-04-16T11:18:23.858Z,5.23
2019-04-16T11:19:28.361Z,5.67
2019-04-16T11:20:32.925Z,5.97
2019-04-16T11:21:37.498Z,5.50
2019-04-16T11:22:42.120Z,5.60
2019-04-16T11:23:46.615Z,5.40
2019-04-16T11:24:51.162Z,5.07
2019-04-16T11:25:55.636Z,4.97
2019-04-16T11:27:00.263Z,5.07
2019-04-16T11:28:04.907Z,5.23
2019-04-16T11:29:09.469Z,8.13
2019-04-16T11:30:16.105Z,4.73
2019-04-16T11:31:22.345Z,4.73
2019-04-16T11:32:28.478Z,4.63
2019-04-16T11:33:32.988Z,4.53
2019-04-16T11:34:37.550Z,5.13
2019-04-16T11:35:42.396Z,5.13
2019-04-16T11:36:46.943Z,5.67
2019-04-16T11:37:51.520Z,5.97
2019-04-16T11:38:56.079Z,6.13
2019-04-16T11:40:00.699Z,7.60
2019-04-16T11:41:05.198Z,6.60
2019-04-16T11:42:09.743Z,5.90
2019-04-16T11:43:14.198Z,5.73
2019-04-16T11:44:18.848Z,5.60
2019-04-16T11:45:23.446Z,4.47
2019-04-16T11:46:27.956Z,4.77
2019-04-16T11:47:34.133Z,4.47
2019-04-16T11:48:38.642Z,4.80
2019-04-16T11:49:43.195Z,4.60
2019-04-16T11:50:47.737Z,5.07
2019-04-16T11:51:52.203Z,4.93
2019-04-16T11:52:58.378Z,4.60
2019-04-16T11:54:03.210Z,4.40
2019-04-16T11:55:07.929Z,4.80
2019-04-16T11:56:12.470Z,4.57
2019-04-16T11:57:17.035Z,4.47
2019-04-16T11:58:23.201Z,4.60
2019-04-16T11:59:27.727Z,4.77
2019-04-16T12:00:43.038Z,4.00
2019-04-16T12:01:52.109Z,4.27
2019-04-16T12:02:58.261Z,4.77
2019-04-16T12:04:04.720Z,4.90
2019-04-16T12:05:13.738Z,5.27
2019-04-16T12:06:29.009Z,4.70
2019-04-16T12:07:35.261Z,4.30
2019-04-16T12:16:11.700Z,4.23
2019-04-16T12:17:20.903Z,4.00
2019-04-16T12:18:31.904Z,4.30
2019-04-16T12:19:46.682Z,4.40
2019-04-16T12:20:58.381Z,4.10
2019-04-16T12:22:07.755Z,4.05
2019-04-16T12:23:13.945Z,4.10
2019-04-16T12:24:35.927Z,4.13
2019-04-16T12:26:00.310Z,3.97
2019-04-16T12:27:12.500Z,3.90
2019-04-16T12:28:18.669Z,4.30
2019-04-16T12:29:30.631Z,4.60
2019-04-16T12:30:39.987Z,4.47
2019-04-16T12:31:48.806Z,4.33
2019-04-16T12:32:55.114Z,4.90
2019-04-16T12:34:13.092Z,4.67
2019-04-16T12:35:19.224Z,4.23
2019-04-16T12:36:25.403Z,4.03
2019-04-16T12:37:31.560Z,5.40
2019-04-16T12:38:53.791Z,5.00
2019-04-16T12:40:06.011Z,4.50
2019-04-16T12:41:15.025Z,4.43
2019-04-16T12:42:21.150Z,4.60
2019-04-16T12:43:27.268Z,4.30
2019-04-16T12:44:46.173Z,5.08
2019-04-16T12:45:53.527Z,4.17
2019-04-16T12:47:11.926Z,4.37
2019-04-16T12:48:30.031Z,4.87
2019-04-16T12:49:54.295Z,4.73
2019-04-16T12:51:09.083Z,4.20
2019-04-16T12:52:31.598Z,4.60
2019-04-16T12:53:40.250Z,4.67
2019-04-16T12:54:46.372Z,4.20
2019-04-16T12:56:05.753Z,4.70
2019-04-16T12:57:27.198Z,4.90
2019-04-16T12:58:33.452Z,4.77
2019-04-16T12:59:48.847Z,4.73
2019-04-16T13:00:55.111Z,4.47
2019-04-16T13:02:13.646Z,4.43
2019-04-16T13:03:24.005Z,4.37
2019-04-16T13:04:33.106Z,4.70
2019-04-16T13:05:55.122Z,4.17
2019-04-16T13:07:01.226Z,4.57
2019-04-16T13:08:10.445Z,4.83
2019-04-16T13:09:28.452Z,4.90
2019-04-16T13:10:37.542Z,4.83
2019-04-16T13:11:43.730Z,5.13
2019-04-16T13:12:58.300Z,5.10
2019-04-16T13:14:04.500Z,5.33
2019-04-16T13:15:10.864Z,5.93
2019-04-16T13:16:19.771Z,5.03
2019-04-16T13:17:42.346Z,5.00
2019-04-16T13:18:54.484Z,4.93
2019-04-16T13:20:06.790Z,5.20
2019-04-16T13:21:12.985Z,5.20
2019-04-16T13:22:24.830Z,5.13
2019-04-16T13:23:39.739Z,4.90
2019-04-16T13:24:48.735Z,4.53
2019-04-16T13:25:54.843Z,4.97
2019-04-16T13:27:00.968Z,5.27
2019-04-16T13:28:06.485Z,5.43
2019-04-16T13:29:12.921Z,5.43
2019-04-16T13:30:18.747Z,4.97
2019-04-16T13:31:23.478Z,5.03
2019-04-16T13:32:28.085Z,4.80
2019-04-16T13:33:32.634Z,4.90
2019-04-16T13:34:37.111Z,5.07
2019-04-16T13:35:41.582Z,5.53
2019-04-16T13:36:46.145Z,5.28
2019-04-16T13:37:50.611Z,5.63
2019-04-16T13:38:59.394Z,5.97
2019-04-16T13:40:07.521Z,5.00
2019-04-16T13:41:12.111Z,4.80
2019-04-16T13:42:16.570Z,4.83
2019-04-16T13:43:25.373Z,5.70
2019-04-16T13:44:40.376Z,5.03
2019-04-16T13:45:43.716Z,5.23
2019-04-16T13:46:48.182Z,5.33
2019-04-16T13:47:55.716Z,5.20
2019-04-16T13:49:03.658Z,5.40
2019-04-16T13:50:12.275Z,4.53
2019-04-16T13:51:19.031Z,5.23
2019-04-16T13:52:25.396Z,5.43
2019-04-16T13:53:37.219Z,4.90
2019-04-16T13:54:46.139Z,5.03
2019-04-16T13:56:08.432Z,4.93
2019-04-16T13:57:15.067Z,5.25
2019-04-16T13:58:27.008Z,6.00
2019-04-16T13:59:49.219Z,4.80
2019-04-16T14:01:11.339Z,5.13
2019-04-16T14:02:23.065Z,5.10
2019-04-16T14:03:27.589Z,5.17
2019-04-16T14:04:32.066Z,5.70
2019-04-16T14:05:38.382Z,6.07
2019-04-16T14:06:45.989Z,5.77
2019-04-16T14:07:49.042Z,5.60
2019-04-16T14:08:53.593Z,6.10
2019-04-16T14:09:58.097Z,5.73
2019-04-16T14:11:02.601Z,5.90
2019-04-16T14:12:07.392Z,6.03
2019-04-16T14:13:13.628Z,5.80
2019-04-16T14:14:18.760Z,5.63
2019-04-16T14:15:32.111Z,6.00
2019-04-16T14:16:32.122Z,5.37
2019-04-16T14:17:51.691Z,5.53
2019-04-16T14:18:42.895Z,5.70
2019-04-16T14:19:47.517Z,5.97
2019-04-16T14:20:51.987Z,5.47
2019-04-16T14:21:56.672Z,5.43
2019-04-16T14:23:01.138Z,5.60
2019-04-16T14:24:05.643Z,6.57
2019-04-16T14:25:10.652Z,6.17
2019-04-16T14:26:15.218Z,6.03
2019-04-16T14:27:19.774Z,5.83
2019-04-16T14:28:24.258Z,5.93
2019-04-16T14:29:28.732Z,5.43
2019-04-16T14:30:34.877Z,5.70
2019-04-16T14:31:39.384Z,5.40
2019-04-16T14:32:43.930Z,5.50
2019-04-16T14:34:01.980Z,5.10
2019-04-16T14:35:08.168Z,5.40
2019-04-16T14:36:13.300Z,5.27
2019-04-16T14:37:17.840Z,5.37
2019-04-16T14:38:29.815Z,5.33
2019-04-16T14:39:35.948Z,5.53
2019-04-16T14:40:42.358Z,5.23
2019-04-16T14:41:50.185Z,5.57
2019-04-16T14:42:57.613Z,5.80
2019-04-16T14:44:03.846Z,5.90
2019-04-16T14:45:10.898Z,5.90
2019-04-16T14:46:15.428Z,5.13
2019-04-16T14:47:19.894Z,5.43
2019-04-16T14:48:24.879Z,5.53
2019-04-16T14:49:29.362Z,5.63
2019-04-16T14:50:34.091Z,7.67
2019-04-16T14:51:38.643Z,4.97
2019-04-16T14:52:43.128Z,5.30
2019-04-16T14:53:52.053Z,5.50
2019-04-16T14:55:04.113Z,4.87
2019-04-16T14:56:12.749Z,4.93
2019-04-16T14:57:18.905Z,5.33
2019-04-16T14:58:40.127Z,5.90
2019-04-16T14:59:55.172Z,5.37
2019-04-16T15:01:01.306Z,4.70
2019-04-16T15:02:07.489Z,5.67
2019-04-16T15:03:16.370Z,5.77
2019-04-16T15:04:22.493Z,5.57
2019-04-16T15:05:31.535Z,5.40
2019-04-16T15:06:52.725Z,4.93
2019-04-16T15:07:57.195Z,4.73